Time;durP1;ratioP1;P1;durP2;ratioP2;P2;SDS_P1;SDS_P2;PMS_P1;PMS_P2;Temp;Humidity;BMP_temperature;BMP_pressure;BME280_temperature;BME280_humidity;BME280_pressure;Samples;Min_cycle;Max_cycle;Signal;HPM_P1;HPM_P2
2023/05/09 00:01:11;;;;;;;14.33;12.83;;;16.60;99.90;;;;;;5090959;28;20214;-64
2023/05/09 00:03:37;;;;;;;15.33;13.27;;;16.60;99.90;;;;;;5074250;28;20178;-64
2023/05/09 00:06:04;;;;;;;13.77;12.37;;;16.60;99.90;;;;;;5071240;28;20204;-64
2023/05/09 00:08:29;;;;;;;15.00;13.17;;;16.50;99.90;;;;;;5085919;28;20209;-64
2023/05/09 00:10:55;;;;;;;15.93;13.37;;;16.50;99.90;;;;;;5090765;28;20224;-64
2023/05/09 00:13:22;;;;;;;12.97;11.77;;;16.50;99.90;;;;;;5077499;28;20300;-64
2023/05/09 00:15:48;;;;;;;16.97;13.50;;;16.50;99.90;;;;;;5070902;28;20190;-64
2023/05/09 00:18:14;;;;;;;15.20;13.23;;;16.50;99.90;;;;;;5082089;28;20216;-64
2023/05/09 00:20:39;;;;;;;15.33;12.50;;;16.40;99.90;;;;;;5090773;28;20170;-64
2023/05/09 00:23:06;;;;;;;16.37;14.10;;;16.40;99.90;;;;;;5081029;28;20214;-64
2023/05/09 00:25:31;;;;;;;16.87;15.03;;;16.50;99.90;;;;;;5070741;28;20234;-64
2023/05/09 00:27:57;;;;;;;16.03;13.07;;;16.50;99.90;;;;;;5078593;28;20724;-64
2023/05/09 00:30:23;;;;;;;15.10;13.47;;;16.60;99.90;;;;;;5090653;28;20185;-64
2023/05/09 00:32:48;;;;;;;15.37;13.87;;;16.60;99.90;;;;;;5084573;28;20185;-64
2023/05/09 00:35:14;;;;;;;15.17;13.57;;;16.70;99.90;;;;;;5070673;28;20198;-64
2023/05/09 00:37:40;;;;;;;14.83;13.23;;;16.70;99.90;;;;;;5074657;28;20214;-65
2023/05/09 00:40:08;;;;;;;15.47;13.13;;;16.70;99.90;;;;;;5090633;28;20169;-65
2023/05/09 00:42:34;;;;;;;14.63;13.13;;;16.70;99.90;;;;;;5090010;28;20181;-65
2023/05/09 00:45:00;;;;;;;14.50;13.00;;;16.70;99.90;;;;;;5074198;28;20201;-65
2023/05/09 00:47:27;;;;;;;15.80;14.20;;;16.70;99.90;;;;;;5074899;28;20578;-65
2023/05/09 00:49:53;;;;;;;16.10;13.73;;;16.70;99.90;;;;;;5094460;28;20189;-65
2023/05/09 00:52:22;;;;;;;16.40;13.70;;;16.80;99.90;;;;;;5094464;28;20169;-64
2023/05/09 00:54:49;;;;;;;17.03;15.17;;;16.80;99.90;;;;;;5074490;28;20300;-65
2023/05/09 00:57:15;;;;;;;22.30;17.10;;;16.80;99.90;;;;;;5074009;28;20276;-65
2023/05/09 00:59:41;;;;;;;22.70;17.63;;;16.80;99.90;;;;;;5091234;28;20181;-64
2023/05/09 01:02:07;;;;;;;24.70;22.00;;;16.80;99.90;;;;;;5094382;28;20165;-65
2023/05/09 01:04:33;;;;;;;27.83;19.10;;;16.80;99.90;;;;;;5092596;28;20633;-65
2023/05/09 01:07:12;;;;;;;25.30;18.77;;;16.80;99.90;;;;;;5094154;28;20193;-65
2023/05/09 01:10:03;;;;;;;27.77;18.80;;;16.80;99.90;;;;;;5076408;28;20546;-64
2023/05/09 01:12:48;;;;;;;26.83;17.60;;;16.80;99.90;;;;;;5072492;28;20174;-64
2023/05/09 01:15:21;;;;;;;29.20;16.87;;;16.70;99.90;;;;;;5073820;28;20578;-65
2023/05/09 01:17:56;;;;;;;26.90;19.53;;;16.70;99.90;;;;;;5073940;28;20197;-64
2023/05/09 01:20:22;;;;;;;25.40;17.40;;;16.70;99.90;;;;;;5093770;28;20180;-65
2023/05/09 01:23:00;;;;;;;23.97;17.00;;;16.70;99.90;;;;;;5093815;28;20174;-65
2023/05/09 01:25:41;;;;;;;27.17;18.43;;;16.70;99.90;;;;;;5073658;28;20655;-65
2023/05/09 01:28:15;;;;;;;29.97;17.90;;;16.70;99.90;;;;;;5074783;28;20174;-65
2023/05/09 01:30:45;;;;;;;29.53;17.93;;;16.70;99.90;;;;;;5073400;28;20178;-64
2023/05/09 01:33:15;;;;;;;30.23;19.13;;;16.60;99.90;;;;;;5075468;28;20182;-65
2023/05/09 01:35:45;;;;;;;23.70;17.40;;;16.60;99.90;;;;;;5093882;28;20213;-65
2023/05/09 01:38:14;;;;;;;26.40;17.83;;;16.60;99.90;;;;;;5091798;28;20212;-65
2023/05/09 01:40:41;;;;;;;31.83;18.73;;;16.70;99.90;;;;;;5073101;28;20181;-64
2023/05/09 01:43:09;;;;;;;26.77;19.00;;;16.60;99.90;;;;;;5073611;28;20171;-65
2023/05/09 01:45:37;;;;;;;27.60;17.73;;;16.70;99.90;;;;;;5093474;28;20313;-65
2023/05/09 01:48:05;;;;;;;28.13;18.03;;;16.70;99.90;;;;;;5093851;28;20181;-64
2023/05/09 01:50:32;;;;;;;29.70;19.77;;;16.70;99.90;;;;;;5073601;28;20216;-64
2023/05/09 01:53:00;;;;;;;31.03;20.27;;;16.70;99.90;;;;;;5073043;28;20718;-65
2023/05/09 01:55:28;;;;;;;28.90;18.57;;;16.70;99.90;;;;;;5090996;28;20274;-64
2023/05/09 01:57:56;;;;;;;29.07;17.70;;;16.70;99.90;;;;;;5076358;28;20679;-65
2023/05/09 02:00:23;;;;;;;26.60;18.53;;;16.70;99.90;;;;;;5071478;28;20189;-64
2023/05/09 02:02:49;;;;;;;33.33;18.90;;;16.60;99.90;;;;;;5087827;28;20643;-64
2023/05/09 02:05:16;;;;;;;30.50;19.63;;;16.70;99.90;;;;;;5092910;28;20733;-65
2023/05/09 02:07:42;;;;;;;27.70;18.77;;;16.70;99.90;;;;;;5092823;28;20173;-65
2023/05/09 02:10:08;;;;;;;26.90;19.23;;;16.70;99.90;;;;;;5092874;28;20235;-65
2023/05/09 02:12:34;;;;;;;30.50;18.10;;;16.70;99.90;;;;;;5074078;28;20186;-65
2023/05/09 02:15:00;;;;;;;24.87;18.97;;;16.70;99.90;;;;;;5072644;28;20181;-64
2023/05/09 02:17:29;;;;;;;30.63;18.47;;;16.80;99.90;;;;;;5089083;28;20216;-65
2023/05/09 02:19:55;;;;;;;29.47;19.93;;;16.80;99.90;;;;;;5092849;28;20166;-65
2023/05/09 02:22:21;;;;;;;27.23;20.60;;;16.90;99.90;;;;;;5076930;28;20221;-64
2023/05/09 02:24:47;;;;;;;26.63;19.13;;;16.90;99.90;;;;;;5072682;28;20198;-71
2023/05/09 02:27:14;;;;;;;30.23;21.27;;;16.90;99.90;;;;;;5087298;28;20213;-72
2023/05/09 02:29:46;;;;;;;31.00;21.47;;;16.90;99.90;;;;;;5084175;28;20640;-74
2023/05/09 02:32:15;;;;;;;26.00;19.07;;;17.00;99.90;;;;;;5072382;28;20655;-70
2023/05/09 02:34:41;;;;;;;26.40;19.73;;;17.00;99.90;;;;;;5079611;28;20200;-72
2023/05/09 02:37:09;;;;;;;28.77;19.43;;;17.00;99.90;;;;;;5092226;28;20258;-69
2023/05/09 02:39:35;;;;;;;24.97;18.90;;;17.00;99.90;;;;;;5087128;28;20235;-68
2023/05/09 02:42:12;;;;;;;26.90;19.00;;;17.00;99.90;;;;;;5073399;28;20175;-70
2023/05/09 02:44:38;;;;;;;25.53;18.23;;;16.90;99.90;;;;;;5077807;28;20188;-74
2023/05/09 02:47:06;;;;;;;27.60;18.30;;;16.90;99.90;;;;;;5093090;28;20205;-71
2023/05/09 02:49:32;;;;;;;27.53;19.43;;;16.80;99.90;;;;;;5087678;28;20212;-69
2023/05/09 02:51:57;;;;;;;24.23;18.17;;;16.80;99.90;;;;;;5073031;28;20589;-71
2023/05/09 02:54:23;;;;;;;28.37;19.97;;;16.90;99.90;;;;;;5075296;28;20178;-69
2023/05/09 02:56:49;;;;;;;26.40;19.73;;;16.90;99.90;;;;;;5092831;28;20212;-68
2023/05/09 02:59:16;;;;;;;30.30;19.93;;;16.80;99.90;;;;;;5092323;28;20200;-67
2023/05/09 03:01:42;;;;;;;24.70;19.30;;;16.80;99.90;;;;;;5092178;28;20165;-70
2023/05/09 03:04:07;;;;;;;25.93;19.50;;;16.80;99.90;;;;;;5090805;28;20223;-68
2023/05/09 03:06:33;;;;;;;26.73;17.80;;;16.80;99.90;;;;;;5090967;28;20228;-70
2023/05/09 03:08:58;;;;;;;25.47;18.70;;;16.70;99.90;;;;;;5093040;28;20469;-69
2023/05/09 03:11:24;;;;;;;29.70;19.83;;;16.70;99.90;;;;;;5073022;28;20174;-69
2023/05/09 03:13:50;;;;;;;24.73;17.87;;;16.60;99.90;;;;;;5072786;28;20190;-69
2023/05/09 03:16:17;;;;;;;24.17;17.17;;;16.60;99.90;;;;;;5087951;28;20235;-68
2023/05/09 03:18:42;;;;;;;21.43;18.13;;;16.60;99.90;;;;;;5093416;28;20173;-69
2023/05/09 03:21:08;;;;;;;19.57;17.20;;;16.60;99.90;;;;;;5078843;28;20216;-67
2023/05/09 03:23:34;;;;;;;23.93;17.37;;;16.60;99.90;;;;;;5072882;28;20512;-67
2023/05/09 03:26:00;;;;;;;18.07;16.13;;;16.60;99.90;;;;;;5072783;28;20225;-69
2023/05/09 03:28:27;;;;;;;21.80;18.47;;;16.60;99.90;;;;;;5073036;28;20248;-67
2023/05/09 03:30:53;;;;;;;20.43;16.00;;;16.60;99.90;;;;;;5071508;28;20546;-67
2023/05/09 03:33:19;;;;;;;22.93;17.47;;;16.60;99.90;;;;;;5072863;28;20185;-66
2023/05/09 03:35:45;;;;;;;21.67;16.17;;;16.50;99.90;;;;;;5072848;28;20194;-69
2023/05/09 03:38:11;;;;;;;20.83;16.93;;;16.50;99.90;;;;;;5071587;28;20198;-68
2023/05/09 03:40:36;;;;;;;19.70;16.30;;;16.50;99.90;;;;;;5079154;28;20634;-67
2023/05/09 03:43:02;;;;;;;18.67;16.20;;;16.50;99.90;;;;;;5092164;28;20670;-67
2023/05/09 03:45:28;;;;;;;20.37;16.10;;;16.50;99.90;;;;;;5090661;28;20288;-68
2023/05/09 03:47:53;;;;;;;19.53;14.87;;;16.40;99.90;;;;;;5092830;28;20282;-69
2023/05/09 03:50:19;;;;;;;20.40;16.17;;;16.40;99.90;;;;;;5086805;28;20212;-69
2023/05/09 03:52:45;;;;;;;22.37;16.73;;;16.40;99.90;;;;;;5071273;28;20177;-70
2023/05/09 03:55:10;;;;;;;21.67;16.63;;;16.30;99.90;;;;;;5071355;28;20185;-70
2023/05/09 03:57:36;;;;;;;21.07;17.03;;;16.30;99.90;;;;;;5071346;28;20757;-65
2023/05/09 04:00:04;;;;;;;21.87;16.77;;;16.30;99.90;;;;;;5071961;28;20193;-65
2023/05/09 04:02:31;;;;;;;20.47;16.80;;;16.30;99.90;;;;;;5089748;28;20180;-64
2023/05/09 04:04:57;;;;;;;21.60;16.73;;;16.30;99.90;;;;;;5083082;28;20174;-64
2023/05/09 04:07:23;;;;;;;18.50;16.50;;;16.40;99.90;;;;;;5070898;28;20178;-65
2023/05/09 04:09:49;;;;;;;17.33;15.23;;;16.40;99.90;;;;;;5075132;28;20177;-64
2023/05/09 04:12:14;;;;;;;19.03;17.03;;;16.40;99.90;;;;;;5091116;28;20256;-64
2023/05/09 04:14:40;;;;;;;22.07;17.37;;;16.40;99.90;;;;;;5074011;28;20280;-64
2023/05/09 04:17:06;;;;;;;19.23;16.53;;;16.30;99.90;;;;;;5072327;28;20286;-69
2023/05/09 04:19:31;;;;;;;24.43;17.77;;;16.20;99.90;;;;;;5089282;28;20169;-68
2023/05/09 04:21:57;;;;;;;20.87;16.13;;;16.10;99.90;;;;;;5094929;28;20169;-73
2023/05/09 04:24:23;;;;;;;19.60;16.83;;;16.10;99.90;;;;;;5084323;28;20265;-66
2023/05/09 04:26:48;;;;;;;21.30;16.60;;;16.10;99.90;;;;;;5076185;28;20201;-67
2023/05/09 04:29:14;;;;;;;19.83;17.00;;;16.10;99.90;;;;;;5075549;28;20213;-70
2023/05/09 04:31:40;;;;;;;20.07;17.33;;;16.00;99.90;;;;;;5075823;28;20256;-71
2023/05/09 04:34:06;;;;;;;21.43;19.13;;;15.90;99.90;;;;;;5084221;28;20186;-72
2023/05/09 04:36:32;;;;;;;23.17;19.27;;;15.80;99.90;;;;;;5096288;28;20215;-70
2023/05/09 04:38:58;;;;;;;24.87;18.50;;;15.70;99.90;;;;;;5089148;28;20222;-70
2023/05/09 04:41:24;;;;;;;21.40;18.80;;;15.70;99.90;;;;;;5075314;28;20174;-68
2023/05/09 04:43:50;;;;;;;21.70;17.57;;;15.70;99.90;;;;;;5080988;28;20176;-70
2023/05/09 04:46:16;;;;;;;22.80;19.07;;;15.80;99.90;;;;;;5095554;28;20197;-68
2023/05/09 04:48:41;;;;;;;23.90;19.20;;;15.80;99.90;;;;;;5092435;28;20663;-69
2023/05/09 04:51:07;;;;;;;25.30;19.93;;;15.90;99.90;;;;;;5074533;28;20185;-71
2023/05/09 04:53:33;;;;;;;24.77;19.23;;;15.90;99.90;;;;;;5075859;28;20178;-65
2023/05/09 04:55:59;;;;;;;24.73;19.67;;;16.00;99.90;;;;;;5094361;28;20189;-66
2023/05/09 04:58:25;;;;;;;24.47;19.00;;;16.10;99.90;;;;;;5093896;28;20290;-64
2023/05/09 05:00:51;;;;;;;24.47;19.83;;;16.10;99.90;;;;;;5092112;28;20663;-65
2023/05/09 05:03:17;;;;;;;20.90;18.67;;;16.10;99.90;;;;;;5093874;28;20169;-65
2023/05/09 05:05:43;;;;;;;23.17;19.53;;;16.20;99.90;;;;;;5092746;28;20689;-66
2023/05/09 05:08:08;;;;;;;23.67;18.80;;;16.20;99.90;;;;;;5094242;28;20188;-65
2023/05/09 05:10:34;;;;;;;24.20;19.43;;;16.30;99.90;;;;;;5093046;28;20189;-65
2023/05/09 05:13:00;;;;;;;20.20;17.43;;;16.30;99.90;;;;;;5092489;28;20683;-65
2023/05/09 05:15:25;;;;;;;22.23;18.13;;;16.30;99.90;;;;;;5078707;28;20224;-65
2023/05/09 05:17:51;;;;;;;21.53;16.83;;;16.40;99.90;;;;;;5073779;28;20272;-65
2023/05/09 05:20:17;;;;;;;22.10;19.73;;;16.50;99.90;;;;;;5086130;28;20227;-65
2023/05/09 05:22:43;;;;;;;21.37;19.20;;;16.60;99.90;;;;;;5091534;28;20177;-65
2023/05/09 05:25:09;;;;;;;20.40;17.67;;;16.60;99.90;;;;;;5081465;28;20230;-66
2023/05/09 05:27:34;;;;;;;19.37;16.40;;;16.70;99.90;;;;;;5073297;28;20193;-64
2023/05/09 05:30:00;;;;;;;22.70;17.60;;;16.80;99.90;;;;;;5081316;28;20182;-65
2023/05/09 05:32:25;;;;;;;19.83;17.43;;;16.90;99.90;;;;;;5085121;28;20186;-65
2023/05/09 05:34:51;;;;;;;21.00;18.60;;;16.90;99.90;;;;;;5073463;28;20181;-66
2023/05/09 05:37:17;;;;;;;20.70;18.50;;;17.00;99.90;;;;;;5078922;28;20216;-65
2023/05/09 05:39:42;;;;;;;19.77;17.57;;;17.10;99.90;;;;;;5091636;28;20195;-65
2023/05/09 05:42:08;;;;;;;20.00;16.47;;;17.20;99.90;;;;;;5088810;28;20177;-65
2023/05/09 05:44:33;;;;;;;21.07;16.57;;;17.40;99.90;;;;;;5073139;28;20170;-66
2023/05/09 05:46:59;;;;;;;19.10;17.03;;;17.50;99.90;;;;;;5072981;28;20671;-66
2023/05/09 05:49:25;;;;;;;20.17;17.20;;;17.70;99.90;;;;;;5072553;28;20216;-65
2023/05/09 05:51:50;;;;;;;19.67;16.10;;;17.90;99.90;;;;;;5073527;28;20196;-65
2023/05/09 05:54:16;;;;;;;19.50;16.83;;;18.10;99.90;;;;;;5073313;28;20535;-65
2023/05/09 05:56:42;;;;;;;17.87;16.07;;;18.40;99.90;;;;;;5072848;28;20259;-65
2023/05/09 05:59:07;;;;;;;17.73;15.83;;;18.60;99.90;;;;;;5091363;28;20212;-65
2023/05/09 06:01:33;;;;;;;18.17;16.30;;;18.70;99.90;;;;;;5092964;28;20169;-66
2023/05/09 06:03:58;;;;;;;17.00;15.23;;;18.80;99.90;;;;;;5075304;28;20170;-66
2023/05/09 06:06:26;;;;;;;19.23;15.70;;;18.80;99.90;;;;;;5088989;28;20693;-65
2023/05/09 06:08:51;;;;;;;18.27;16.33;;;18.90;99.90;;;;;;5083655;28;20169;-66
2023/05/09 06:11:17;;;;;;;16.97;14.67;;;19.00;99.90;;;;;;5088843;28;20303;-66
2023/05/09 06:13:43;;;;;;;17.00;15.27;;;19.00;99.90;;;;;;5078424;28;20267;-66
2023/05/09 06:16:09;;;;;;;19.80;15.80;;;19.00;99.90;;;;;;5072468;28;20197;-66
2023/05/09 06:18:39;;;;;;;17.07;15.37;;;19.00;99.90;;;;;;5082620;28;20204;-66
2023/05/09 06:21:05;;;;;;;15.17;13.53;;;18.90;99.90;;;;;;5091542;28;20275;-66
2023/05/09 06:23:31;;;;;;;17.30;15.03;;;18.90;99.90;;;;;;5090620;28;20192;-65
2023/05/09 06:25:56;;;;;;;18.00;16.20;;;18.90;99.90;;;;;;5092205;28;20198;-65
2023/05/09 06:28:22;;;;;;;18.00;15.90;;;19.00;99.90;;;;;;5082801;28;20220;-65
2023/05/09 06:30:48;;;;;;;17.90;16.17;;;19.20;99.90;;;;;;5071347;28;20174;-65
2023/05/09 06:33:13;;;;;;;17.50;15.80;;;19.40;99.90;;;;;;5071495;28;20219;-65
2023/05/09 06:35:39;;;;;;;14.83;13.43;;;19.60;99.90;;;;;;5071766;28;20345;-65
2023/05/09 06:38:04;;;;;;;15.17;13.57;;;19.90;99.90;;;;;;5072971;28;20728;-65
2023/05/09 06:40:30;;;;;;;16.45;14.95;;;20.00;99.90;;;;;;5070227;28;20227;-65
2023/05/09 06:42:56;;;;;;;18.05;16.27;;;20.30;99.90;;;;;;5072017;28;20233;-65
2023/05/09 06:45:21;;;;;;;15.23;13.70;;;20.50;99.90;;;;;;5070989;28;20194;-65
2023/05/09 06:47:47;;;;;;;15.63;13.52;;;20.60;99.90;;;;;;5071328;28;20182;-66
2023/05/09 06:50:12;;;;;;;14.88;13.45;;;20.60;99.90;;;;;;5070768;28;20289;-65
2023/05/09 06:52:38;;;;;;;14.27;12.77;;;20.40;99.90;;;;;;5071180;28;20181;-65
2023/05/09 06:55:04;;;;;;;14.45;12.95;;;20.40;99.90;;;;;;5071053;28;20166;-66
2023/05/09 06:57:30;;;;;;;13.48;11.85;;;20.30;99.90;;;;;;5071203;28;20205;-65
2023/05/09 06:59:55;;;;;;;15.03;13.20;;;20.40;99.90;;;;;;5070805;28;20599;-65
2023/05/09 07:02:21;;;;;;;16.63;15.10;;;20.50;99.90;;;;;;5072238;28;20177;-66
2023/05/09 07:04:47;;;;;;;17.35;15.90;;;20.80;99.90;;;;;;5071324;28;20174;-66
2023/05/09 07:07:12;;;;;;;15.20;13.85;;;21.20;99.90;;;;;;5079229;28;20667;-66
2023/05/09 07:09:38;;;;;;;15.18;13.98;;;21.50;99.90;;;;;;5069147;28;20170;-65
2023/05/09 07:12:04;;;;;;;11.93;10.82;;;21.70;99.90;;;;;;5070235;28;20184;-65
2023/05/09 07:14:29;;;;;;;10.70;9.77;;;21.90;99.90;;;;;;5071119;28;20181;-65
2023/05/09 07:16:55;;;;;;;10.65;9.70;;;22.10;99.90;;;;;;5086154;28;20209;-65
2023/05/09 07:19:21;;;;;;;10.48;9.38;;;22.10;99.90;;;;;;5071131;28;20206;-64
2023/05/09 07:21:47;;;;;;;7.80;7.10;;;22.10;99.90;;;;;;5090943;28;20232;-64
2023/05/09 07:24:13;;;;;;;9.18;8.45;;;22.10;99.90;;;;;;5083866;28;20166;-65
2023/05/09 07:26:38;;;;;;;9.55;8.68;;;22.10;99.90;;;;;;5070056;28;20544;-65
2023/05/09 07:29:04;;;;;;;9.25;7.63;;;22.20;99.90;;;;;;5070631;28;20202;-65
2023/05/09 07:31:29;;;;;;;6.70;6.07;;;22.30;99.90;;;;;;5069970;28;20181;-65
2023/05/09 07:33:55;;;;;;;6.45;5.95;;;22.40;99.90;;;;;;5071240;28;20319;-65
2023/05/09 07:36:21;;;;;;;7.30;6.70;;;22.40;99.90;;;;;;5070714;28;20277;-65
2023/05/09 07:38:49;;;;;;;7.85;6.97;;;22.40;99.90;;;;;;5075750;28;20246;-65
2023/05/09 07:41:15;;;;;;;6.28;5.78;;;22.50;99.90;;;;;;5072604;28;20185;-65
2023/05/09 07:43:41;;;;;;;6.45;5.88;;;22.40;99.90;;;;;;5081089;28;20166;-65
2023/05/09 07:46:06;;;;;;;6.50;5.90;;;22.30;99.90;;;;;;5091169;28;20268;-65
2023/05/09 07:48:32;;;;;;;6.10;5.55;;;22.30;99.90;;;;;;5090808;28;20193;-65
2023/05/09 07:50:57;;;;;;;5.93;5.32;;;22.40;99.90;;;;;;5090662;28;20277;-65
2023/05/09 07:53:23;;;;;;;7.55;6.05;;;22.40;99.90;;;;;;5087512;28;20178;-65
2023/05/09 07:55:49;;;;;;;5.70;5.30;;;22.40;99.90;;;;;;5091141;28;20227;-65
2023/05/09 07:58:15;;;;;;;6.05;5.45;;;22.40;99.90;;;;;;5090946;28;20739;-65
2023/05/09 08:00:41;;;;;;;8.02;7.43;;;22.30;99.90;;;;;;5090326;28;20169;-65
2023/05/09 08:03:07;;;;;;;5.25;4.85;;;22.40;99.90;;;;;;5090869;28;20246;-65
2023/05/09 08:05:32;;;;;;;5.72;5.22;;;22.50;99.90;;;;;;5090691;28;20212;-65
2023/05/09 08:07:58;;;;;;;5.68;5.28;;;22.80;99.90;;;;;;5091202;28;20244;-65
2023/05/09 08:10:25;;;;;;;5.45;4.97;;;23.30;99.90;;;;;;5090390;28;20169;-65
2023/05/09 08:12:51;;;;;;;5.63;5.07;;;23.50;99.90;;;;;;5090967;28;20177;-65
2023/05/09 08:15:17;;;;;;;4.75;4.45;;;23.90;99.90;;;;;;5090810;28;20208;-65
2023/05/09 08:17:42;;;;;;;7.25;6.78;;;24.40;99.90;;;;;;5087936;28;20240;-65
2023/05/09 08:20:10;;;;;;;8.70;8.13;;;24.70;99.90;;;;;;5090181;28;20665;-65
2023/05/09 08:22:38;;;;;;;5.35;4.95;;;24.60;99.90;;;;;;5090641;28;20541;-65
2023/05/09 08:25:04;;;;;;;5.95;5.63;;;24.80;99.90;;;;;;5090664;28;20174;-65
2023/05/09 08:27:30;;;;;;;4.53;4.15;;;25.00;99.90;;;;;;5090851;28;20170;-65
2023/05/09 08:29:55;;;;;;;3.97;3.67;;;25.20;99.90;;;;;;5089229;28;20227;-65
2023/05/09 08:32:21;;;;;;;4.72;4.28;;;25.30;99.90;;;;;;5084434;28;20190;-65
2023/05/09 08:34:46;;;;;;;4.90;4.60;;;25.50;99.90;;;;;;5074521;28;20644;-66
2023/05/09 08:37:12;;;;;;;4.82;4.47;;;25.40;99.90;;;;;;5069850;28;20629;-65
2023/05/09 08:39:37;;;;;;;4.57;4.20;;;25.40;99.90;;;;;;5074382;28;20714;-65
2023/05/09 08:42:03;;;;;;;4.60;4.30;;;25.70;99.90;;;;;;5089807;28;20252;-65
2023/05/09 08:44:30;;;;;;;4.97;4.63;;;25.90;99.90;;;;;;5081647;28;20166;-65
2023/05/09 08:46:59;;;;;;;4.95;4.55;;;26.00;99.90;;;;;;5088113;28;20596;-65
2023/05/09 08:49:25;;;;;;;4.10;3.72;;;26.20;99.90;;;;;;5076330;28;20178;-65
2023/05/09 08:51:51;;;;;;;5.93;5.63;;;26.50;99.90;;;;;;5070323;28;20170;-65
2023/05/09 08:54:17;;;;;;;5.65;5.25;;;26.40;99.90;;;;;;5071480;28;20174;-66
2023/05/09 08:56:43;;;;;;;6.22;5.63;;;26.30;99.90;;;;;;5068169;28;20197;-66
2023/05/09 08:59:09;;;;;;;3.92;3.63;;;26.30;99.90;;;;;;5070003;28;20185;-66
2023/05/09 09:01:35;;;;;;;4.22;3.90;;;26.40;99.90;;;;;;5070231;28;20170;-65
2023/05/09 09:04:05;;;;;;;4.15;3.85;;;26.20;99.90;;;;;;5078067;28;20621;-65
2023/05/09 09:06:35;;;;;;;4.93;4.63;;;26.10;99.90;;;;;;5093814;28;20550;-66
2023/05/09 09:09:04;;;;;;;5.18;4.80;;;26.30;99.90;;;;;;5084793;28;20182;-66
2023/05/09 09:11:31;;;;;;;4.45;4.15;;;26.30;99.90;;;;;;5074525;28;20170;-66
2023/05/09 09:14:01;;;;;;;4.68;4.38;;;26.20;99.90;;;;;;5093862;28;20563;-65
2023/05/09 09:16:28;;;;;;;4.75;4.45;;;26.20;99.90;;;;;;5091293;28;20193;-65
2023/05/09 09:18:55;;;;;;;6.45;6.03;;;26.10;99.90;;;;;;5093666;28;20193;-66
2023/05/09 09:21:22;;;;;;;6.00;5.50;;;26.00;99.90;;;;;;5092538;28;20253;-66
2023/05/09 09:23:48;;;;;;;4.68;4.38;;;26.00;99.90;;;;;;5073776;28;20185;-65
2023/05/09 09:26:14;;;;;;;5.25;4.75;;;26.20;99.90;;;;;;5073397;28;20195;-65
2023/05/09 09:28:41;;;;;;;5.55;5.13;;;26.20;99.90;;;;;;5091493;28;20178;-65
2023/05/09 09:31:21;;;;;;;5.60;4.65;;;26.20;99.90;;;;;;5093048;28;20169;-65
2023/05/09 09:33:47;;;;;;;5.45;5.15;;;26.10;99.90;;;;;;5091721;28;20183;-65
2023/05/09 09:36:13;;;;;;;5.90;5.30;;;25.90;99.90;;;;;;5093612;28;20722;-65
2023/05/09 09:38:40;;;;;;;6.65;6.28;;;25.70;99.90;;;;;;5091455;28;20292;-65
2023/05/09 09:41:06;;;;;;;5.28;4.78;;;25.20;99.90;;;;;;5092826;28;20201;-66
2023/05/09 09:43:32;;;;;;;6.72;6.32;;;24.90;99.90;;;;;;5077867;28;20620;-65
2023/05/09 09:46:02;;;;;;;6.25;5.95;;;25.00;99.90;;;;;;5073036;28;20198;-65
2023/05/09 09:48:34;;;;;;;8.48;7.97;;;25.30;99.90;;;;;;5086206;28;20268;-65
2023/05/09 09:51:10;;;;;;;5.70;5.40;;;25.50;99.90;;;;;;5093054;28;20253;-65
2023/05/09 09:53:42;;;;;;;6.82;6.28;;;25.80;99.90;;;;;;5078719;28;20675;-65
2023/05/09 09:56:08;;;;;;;5.28;4.88;;;25.80;99.90;;;;;;5083883;28;20208;-65
2023/05/09 09:58:34;;;;;;;6.38;5.88;;;25.80;99.90;;;;;;5091744;28;20201;-65
2023/05/09 10:01:12;;;;;;;6.47;6.07;;;25.60;99.90;;;;;;5080050;28;20182;-66
2023/05/09 10:03:40;;;;;;;6.15;5.75;;;25.60;99.90;;;;;;5072963;28;20173;-65
2023/05/09 10:06:10;;;;;;;6.50;6.00;;;25.70;99.90;;;;;;5086007;28;20197;-65
2023/05/09 10:08:36;;;;;;;6.00;5.68;;;25.60;99.90;;;;;;5092065;28;20193;-65
2023/05/09 10:11:02;;;;;;;6.63;6.22;;;25.60;99.90;;;;;;5072568;28;20224;-65
2023/05/09 10:13:28;;;;;;;6.88;6.47;;;25.60;99.90;;;;;;5073429;28;20444;-65
2023/05/09 10:15:56;;;;;;;6.57;4.95;;;25.60;99.90;;;;;;5070845;28;20239;-65
2023/05/09 10:18:26;;;;;;;5.82;5.53;;;25.50;99.90;;;;;;5090341;28;20205;-65
2023/05/09 10:20:53;;;;;;;6.30;5.05;;;25.60;99.90;;;;;;5092088;28;20193;-66
2023/05/09 10:23:20;;;;;;;4.75;4.35;;;25.40;99.90;;;;;;5075152;28;20178;-65
2023/05/09 10:25:57;;;;;;;6.03;5.63;;;25.40;99.90;;;;;;5072529;28;20559;-66
2023/05/09 10:28:30;;;;;;;5.55;5.15;;;25.50;99.90;;;;;;5088347;28;20173;-66
2023/05/09 10:31:21;;;;;;;5.97;5.47;;;25.60;99.90;;;;;;5092170;28;20169;-66
2023/05/09 10:33:49;;;;;;;5.97;5.38;;;25.40;99.90;;;;;;5070048;28;20197;-65
2023/05/09 10:36:19;;;;;;;6.00;5.60;;;25.40;99.90;;;;;;5072069;28;20193;-64
2023/05/09 10:38:47;;;;;;;5.13;4.82;;;25.20;99.90;;;;;;5070936;28;20717;-64
2023/05/09 10:41:13;;;;;;;6.18;5.68;;;25.20;99.90;;;;;;5071177;28;20170;-64
2023/05/09 10:43:39;;;;;;;7.22;6.75;;;25.50;99.90;;;;;;5090689;28;20256;-64
2023/05/09 10:46:05;;;;;;;5.65;5.25;;;25.90;99.90;;;;;;5092308;28;20268;-65
2023/05/09 10:48:35;;;;;;;5.75;5.35;;;26.10;99.90;;;;;;5074550;28;20186;-64
2023/05/09 10:51:02;;;;;;;5.30;4.95;;;26.30;99.90;;;;;;5071074;28;20257;-64
2023/05/09 10:53:44;;;;;;;4.63;4.35;;;26.50;99.90;;;;;;4979260;28;21222;-65
2023/05/09 10:56:29;;;;;;;4.82;4.28;;;26.70;99.90;;;;;;4605365;28;20729;-65
2023/05/09 10:58:55;;;;;;;5.47;5.15;;;26.90;99.90;;;;;;4674263;28;21180;-65
2023/05/09 11:01:38;;;;;;;5.82;5.43;;;26.80;99.90;;;;;;4593784;28;21319;-65
2023/05/09 11:04:11;;;;;;;5.25;4.88;;;26.50;99.90;;;;;;4612440;28;21327;-65
2023/05/09 11:06:45;;;;;;;5.57;5.07;;;26.40;99.90;;;;;;4592345;28;20682;-65
2023/05/09 11:09:24;;;;;;;6.00;5.50;;;26.10;99.90;;;;;;4642092;28;20724;-65
2023/05/09 11:11:52;;;;;;;6.05;5.55;;;25.80;99.90;;;;;;5090862;28;20170;-64
2023/05/09 11:14:43;;;;;;;7.47;6.63;;;25.50;99.90;;;;;;5091662;28;20264;-64
2023/05/09 11:17:21;;;;;;;5.50;5.00;;;25.30;99.90;;;;;;5082903;28;20302;-64
2023/05/09 11:19:46;;;;;;;5.30;4.75;;;25.10;99.90;;;;;;5068553;28;20166;-64
2023/05/09 11:22:26;;;;;;;8.85;8.25;;;25.10;99.90;;;;;;5072371;28;20244;-64
2023/05/09 11:25:09;;;;;;;5.75;5.45;;;25.20;99.90;;;;;;5071472;28;20174;-64
2023/05/09 11:27:48;;;;;;;6.82;6.32;;;25.10;99.90;;;;;;5081195;28;20188;-64
2023/05/09 11:30:15;;;;;;;8.20;7.55;;;24.80;99.90;;;;;;5090978;28;20176;-64
2023/05/09 11:32:45;;;;;;;7.00;6.47;;;24.80;99.90;;;;;;5080468;28;20536;-64
2023/05/09 11:35:16;;;;;;;6.47;5.97;;;25.00;99.90;;;;;;5070384;28;20198;-64
2023/05/09 11:37:51;;;;;;;6.65;6.25;;;25.10;99.90;;;;;;5069428;28;20280;-65
2023/05/09 11:40:18;;;;;;;6.25;5.72;;;25.30;99.90;;;;;;5070781;28;20179;-63
2023/05/09 11:42:49;;;;;;;4.88;4.53;;;25.40;99.90;;;;;;5071093;28;20193;-65
2023/05/09 11:45:16;;;;;;;6.50;5.05;;;25.40;99.90;;;;;;5079911;28;20255;-64
2023/05/09 11:47:42;;;;;;;5.07;4.57;;;25.10;99.90;;;;;;5091235;28;20532;-64
2023/05/09 11:50:08;;;;;;;6.20;5.80;;;24.80;99.90;;;;;;5081774;28;20206;-64
2023/05/09 11:52:35;;;;;;;8.20;7.80;;;24.80;99.90;;;;;;5071084;28;20169;-64
2023/05/09 11:55:00;;;;;;;6.65;5.80;;;24.70;99.90;;;;;;5084253;28;20185;-64
2023/05/09 11:57:28;;;;;;;5.72;5.35;;;24.70;99.90;;;;;;5090653;28;20556;-65
2023/05/09 11:59:53;;;;;;;6.68;6.28;;;24.60;99.90;;;;;;5078430;28;20560;-64
2023/05/09 12:02:21;;;;;;;4.78;4.57;;;24.60;99.90;;;;;;5070877;28;20471;-64
2023/05/09 12:04:47;;;;;;;6.82;6.22;;;24.60;99.90;;;;;;5080725;28;20180;-64
2023/05/09 12:07:15;;;;;;;7.90;7.40;;;24.70;99.90;;;;;;5090788;28;20238;-64
2023/05/09 12:09:42;;;;;;;6.72;6.25;;;24.80;99.90;;;;;;5086975;28;20181;-65
2023/05/09 12:12:11;;;;;;;7.63;7.10;;;25.00;99.90;;;;;;5090447;28;20632;-64
2023/05/09 12:14:38;;;;;;;6.85;6.35;;;25.10;99.90;;;;;;5078493;28;20194;-64
2023/05/09 12:17:03;;;;;;;8.20;7.57;;;25.40;99.90;;;;;;5071630;28;20569;-64
2023/05/09 12:19:29;;;;;;;6.80;6.30;;;25.40;99.90;;;;;;5089931;28;20169;-64
2023/05/09 12:21:59;;;;;;;7.10;6.65;;;25.40;99.90;;;;;;5090797;28;20224;-64
2023/05/09 12:24:26;;;;;;;5.38;5.07;;;25.40;99.90;;;;;;5070927;28;20657;-64
2023/05/09 12:26:53;;;;;;;7.13;6.45;;;25.10;99.90;;;;;;5071136;28;20407;-64
2023/05/09 12:29:20;;;;;;;4.93;4.63;;;24.90;99.90;;;;;;5088093;28;20179;-65
2023/05/09 12:31:46;;;;;;;4.70;4.35;;;24.80;99.90;;;;;;5090006;28;20530;-65
2023/05/09 12:34:12;;;;;;;7.45;7.03;;;24.60;99.90;;;;;;5073648;28;20587;-64
2023/05/09 12:36:38;;;;;;;5.13;4.90;;;24.50;99.90;;;;;;5070620;28;20718;-64